sensor_id;sensor_type;location;lat;lon;timestamp;P1;durP1;ratioP1;P2;durP2;ratioP2
36189;SDS011;22232;50.914;13.858;2024-03-08T00:00:13;52.33;;;26.10;;
36189;SDS011;22232;50.914;13.858;2024-03-08T00:02:44;52.08;;;25.63;;
36189;SDS011;22232;50.914;13.858;2024-03-08T00:05:13;51.25;;;25.67;;
36189;SDS011;22232;50.914;13.858;2024-03-08T00:07:41;52.38;;;25.95;;
36189;SDS011;22232;50.914;13.858;2024-03-08T00:10:11;52.92;;;26.15;;
36189;SDS011;22232;50.914;13.858;2024-03-08T00:12:42;49.40;;;25.83;;
36189;SDS011;22232;50.914;13.858;2024-03-08T00:15:13;53.80;;;26.85;;
36189;SDS011;22232;50.914;13.858;2024-03-08T00:17:44;47.85;;;24.40;;
36189;SDS011;22232;50.914;13.858;2024-03-08T00:20:12;55.03;;;27.27;;
36189;SDS011;22232;50.914;13.858;2024-03-08T00:22:41;56.05;;;27.80;;
36189;SDS011;22232;50.914;13.858;2024-03-08T00:25:08;57.15;;;28.88;;
36189;SDS011;22232;50.914;13.858;2024-03-08T00:27:37;54.22;;;26.90;;
36189;SDS011;22232;50.914;13.858;2024-03-08T00:30:05;57.17;;;28.92;;
36189;SDS011;22232;50.914;13.858;2024-03-08T00:32:34;54.25;;;27.77;;
36189;SDS011;22232;50.914;13.858;2024-03-08T00:35:02;52.33;;;27.25;;
36189;SDS011;22232;50.914;13.858;2024-03-08T00:37:29;62.97;;;30.65;;
36189;SDS011;22232;50.914;13.858;2024-03-08T00:39:57;74.35;;;35.47;;
36189;SDS011;22232;50.914;13.858;2024-03-08T00:42:24;87.82;;;38.30;;
36189;SDS011;22232;50.914;13.858;2024-03-08T00:44:52;73.25;;;34.35;;
36189;SDS011;22232;50.914;13.858;2024-03-08T00:47:19;54.92;;;28.63;;
36189;SDS011;22232;50.914;13.858;2024-03-08T00:49:47;56.85;;;26.52;;
36189;SDS011;22232;50.914;13.858;2024-03-08T00:52:14;55.88;;;26.25;;
36189;SDS011;22232;50.914;13.858;2024-03-08T00:54:42;54.58;;;26.73;;
36189;SDS011;22232;50.914;13.858;2024-03-08T00:57:11;60.22;;;30.00;;
36189;SDS011;22232;50.914;13.858;2024-03-08T00:59:39;60.97;;;30.33;;
36189;SDS011;22232;50.914;13.858;2024-03-08T01:02:07;64.90;;;32.75;;
36189;SDS011;22232;50.914;13.858;2024-03-08T01:04:36;56.97;;;28.23;;
36189;SDS011;22232;50.914;13.858;2024-03-08T01:07:03;58.05;;;29.63;;
36189;SDS011;22232;50.914;13.858;2024-03-08T01:09:31;59.33;;;28.00;;
36189;SDS011;22232;50.914;13.858;2024-03-08T01:11:59;59.15;;;28.27;;
36189;SDS011;22232;50.914;13.858;2024-03-08T01:14:27;65.88;;;28.67;;
36189;SDS011;22232;50.914;13.858;2024-03-08T01:16:55;57.92;;;28.08;;
36189;SDS011;22232;50.914;13.858;2024-03-08T01:19:23;57.10;;;28.13;;
36189;SDS011;22232;50.914;13.858;2024-03-08T01:21:51;52.80;;;26.73;;
36189;SDS011;22232;50.914;13.858;2024-03-08T01:24:19;59.60;;;28.20;;
36189;SDS011;22232;50.914;13.858;2024-03-08T01:26:46;55.90;;;27.25;;
36189;SDS011;22232;50.914;13.858;2024-03-08T01:29:14;58.40;;;28.50;;
36189;SDS011;22232;50.914;13.858;2024-03-08T01:31:42;56.58;;;28.45;;
36189;SDS011;22232;50.914;13.858;2024-03-08T01:34:09;56.67;;;27.75;;
36189;SDS011;22232;50.914;13.858;2024-03-08T01:36:37;59.40;;;27.65;;
36189;SDS011;22232;50.914;13.858;2024-03-08T01:39:05;61.25;;;27.92;;
36189;SDS011;22232;50.914;13.858;2024-03-08T01:41:35;62.65;;;30.60;;
36189;SDS011;22232;50.914;13.858;2024-03-08T01:44:03;58.92;;;27.90;;
36189;SDS011;22232;50.914;13.858;2024-03-08T01:46:31;58.28;;;28.25;;
36189;SDS011;22232;50.914;13.858;2024-03-08T01:48:58;57.90;;;28.50;;
36189;SDS011;22232;50.914;13.858;2024-03-08T01:51:28;57.42;;;27.10;;
36189;SDS011;22232;50.914;13.858;2024-03-08T01:53:58;60.70;;;27.92;;
36189;SDS011;22232;50.914;13.858;2024-03-08T01:56:29;58.72;;;27.85;;
36189;SDS011;22232;50.914;13.858;2024-03-08T01:58:59;66.18;;;31.70;;
36189;SDS011;22232;50.914;13.858;2024-03-08T02:01:26;64.35;;;28.75;;
36189;SDS011;22232;50.914;13.858;2024-03-08T02:03:56;65.85;;;29.58;;
36189;SDS011;22232;50.914;13.858;2024-03-08T02:06:23;55.05;;;27.65;;
36189;SDS011;22232;50.914;13.858;2024-03-08T02:08:51;60.22;;;28.02;;
36189;SDS011;22232;50.914;13.858;2024-03-08T02:11:19;61.38;;;29.40;;
36189;SDS011;22232;50.914;13.858;2024-03-08T02:13:48;62.97;;;29.27;;
36189;SDS011;22232;50.914;13.858;2024-03-08T02:16:21;59.70;;;28.08;;
36189;SDS011;22232;50.914;13.858;2024-03-08T02:18:49;64.90;;;30.40;;
36189;SDS011;22232;50.914;13.858;2024-03-08T02:21:17;60.25;;;28.63;;
36189;SDS011;22232;50.914;13.858;2024-03-08T02:23:46;63.00;;;29.90;;
36189;SDS011;22232;50.914;13.858;2024-03-08T02:26:13;60.10;;;29.83;;
36189;SDS011;22232;50.914;13.858;2024-03-08T02:28:41;61.72;;;29.17;;
36189;SDS011;22232;50.914;13.858;2024-03-08T02:31:11;59.35;;;28.63;;
36189;SDS011;22232;50.914;13.858;2024-03-08T02:33:39;57.47;;;28.70;;
36189;SDS011;22232;50.914;13.858;2024-03-08T02:36:07;57.10;;;28.63;;
36189;SDS011;22232;50.914;13.858;2024-03-08T02:38:34;62.33;;;28.10;;
36189;SDS011;22232;50.914;13.858;2024-03-08T02:41:02;65.68;;;28.63;;
36189;SDS011;22232;50.914;13.858;2024-03-08T02:43:31;57.08;;;28.52;;
36189;SDS011;22232;50.914;13.858;2024-03-08T02:45:58;56.50;;;28.00;;
36189;SDS011;22232;50.914;13.858;2024-03-08T02:48:27;58.53;;;28.63;;
36189;SDS011;22232;50.914;13.858;2024-03-08T02:50:54;62.45;;;28.25;;
36189;SDS011;22232;50.914;13.858;2024-03-08T02:53:22;61.38;;;29.63;;
36189;SDS011;22232;50.914;13.858;2024-03-08T02:55:49;58.47;;;27.30;;
36189;SDS011;22232;50.914;13.858;2024-03-08T02:58:17;58.58;;;28.50;;
36189;SDS011;22232;50.914;13.858;2024-03-08T03:00:45;55.05;;;27.35;;
36189;SDS011;22232;50.914;13.858;2024-03-08T03:03:13;59.70;;;28.83;;
36189;SDS011;22232;50.914;13.858;2024-03-08T03:05:40;56.20;;;28.60;;
36189;SDS011;22232;50.914;13.858;2024-03-08T03:08:15;64.95;;;30.23;;
36189;SDS011;22232;50.914;13.858;2024-03-08T03:10:44;60.22;;;29.17;;
36189;SDS011;22232;50.914;13.858;2024-03-08T03:13:13;57.08;;;28.17;;
36189;SDS011;22232;50.914;13.858;2024-03-08T03:15:41;62.05;;;28.38;;
36189;SDS011;22232;50.914;13.858;2024-03-08T03:18:09;64.40;;;30.45;;
36189;SDS011;22232;50.914;13.858;2024-03-08T03:20:37;61.85;;;29.40;;
36189;SDS011;22232;50.914;13.858;2024-03-08T03:23:08;63.60;;;28.95;;
36189;SDS011;22232;50.914;13.858;2024-03-08T03:25:36;64.05;;;30.20;;
36189;SDS011;22232;50.914;13.858;2024-03-08T03:28:06;60.63;;;28.52;;
36189;SDS011;22232;50.914;13.858;2024-03-08T03:30:35;62.92;;;28.02;;
36189;SDS011;22232;50.914;13.858;2024-03-08T03:33:02;61.08;;;29.60;;
36189;SDS011;22232;50.914;13.858;2024-03-08T03:35:35;58.72;;;28.50;;
36189;SDS011;22232;50.914;13.858;2024-03-08T03:38:04;68.93;;;29.30;;
36189;SDS011;22232;50.914;13.858;2024-03-08T03:40:37;59.33;;;29.38;;
36189;SDS011;22232;50.914;13.858;2024-03-08T03:43:09;59.17;;;27.95;;
36189;SDS011;22232;50.914;13.858;2024-03-08T03:45:39;63.15;;;29.58;;
36189;SDS011;22232;50.914;13.858;2024-03-08T03:48:09;60.45;;;28.48;;
36189;SDS011;22232;50.914;13.858;2024-03-08T03:50:38;59.03;;;29.10;;
36189;SDS011;22232;50.914;13.858;2024-03-08T03:53:07;59.13;;;28.48;;
36189;SDS011;22232;50.914;13.858;2024-03-08T03:55:37;57.42;;;28.15;;
36189;SDS011;22232;50.914;13.858;2024-03-08T03:58:08;59.80;;;27.95;;
36189;SDS011;22232;50.914;13.858;2024-03-08T04:00:38;59.15;;;28.08;;
36189;SDS011;22232;50.914;13.858;2024-03-08T04:03:06;58.72;;;28.98;;
36189;SDS011;22232;50.914;13.858;2024-03-08T04:05:35;60.67;;;27.98;;
36189;SDS011;22232;50.914;13.858;2024-03-08T04:08:02;61.47;;;28.40;;
36189;SDS011;22232;50.914;13.858;2024-03-08T04:10:30;53.85;;;26.38;;
36189;SDS011;22232;50.914;13.858;2024-03-08T04:12:58;61.25;;;28.35;;
36189;SDS011;22232;50.914;13.858;2024-03-08T04:15:25;55.63;;;27.48;;
36189;SDS011;22232;50.914;13.858;2024-03-08T04:17:53;56.30;;;26.48;;
36189;SDS011;22232;50.914;13.858;2024-03-08T04:20:21;58.88;;;27.48;;
36189;SDS011;22232;50.914;13.858;2024-03-08T04:22:48;58.42;;;27.52;;
36189;SDS011;22232;50.914;13.858;2024-03-08T04:25:17;56.92;;;27.58;;
36189;SDS011;22232;50.914;13.858;2024-03-08T04:27:45;54.78;;;28.35;;
36189;SDS011;22232;50.914;13.858;2024-03-08T04:30:12;63.42;;;29.17;;
36189;SDS011;22232;50.914;13.858;2024-03-08T04:32:40;58.72;;;27.88;;
36189;SDS011;22232;50.914;13.858;2024-03-08T04:35:09;53.72;;;25.85;;
36189;SDS011;22232;50.914;13.858;2024-03-08T04:37:36;55.65;;;26.75;;
36189;SDS011;22232;50.914;13.858;2024-03-08T04:40:04;53.83;;;26.13;;
36189;SDS011;22232;50.914;13.858;2024-03-08T04:42:32;51.28;;;25.10;;
36189;SDS011;22232;50.914;13.858;2024-03-08T04:45:00;57.53;;;27.15;;
36189;SDS011;22232;50.914;13.858;2024-03-08T04:47:28;55.40;;;27.45;;
36189;SDS011;22232;50.914;13.858;2024-03-08T04:49:56;56.88;;;26.15;;
36189;SDS011;22232;50.914;13.858;2024-03-08T04:52:25;57.10;;;26.67;;
36189;SDS011;22232;50.914;13.858;2024-03-08T04:54:53;57.15;;;27.05;;
36189;SDS011;22232;50.914;13.858;2024-03-08T04:57:20;56.65;;;26.75;;
36189;SDS011;22232;50.914;13.858;2024-03-08T04:59:48;60.70;;;27.40;;
36189;SDS011;22232;50.914;13.858;2024-03-08T05:02:16;55.10;;;27.00;;
36189;SDS011;22232;50.914;13.858;2024-03-08T05:04:44;60.88;;;27.83;;
36189;SDS011;22232;50.914;13.858;2024-03-08T05:07:11;61.10;;;27.55;;
36189;SDS011;22232;50.914;13.858;2024-03-08T05:09:39;56.15;;;25.92;;
36189;SDS011;22232;50.914;13.858;2024-03-08T05:12:08;60.47;;;26.63;;
36189;SDS011;22232;50.914;13.858;2024-03-08T05:14:35;56.55;;;26.17;;
36189;SDS011;22232;50.914;13.858;2024-03-08T05:17:03;54.45;;;26.35;;
36189;SDS011;22232;50.914;13.858;2024-03-08T05:19:34;55.45;;;26.25;;
36189;SDS011;22232;50.914;13.858;2024-03-08T05:22:03;55.60;;;24.58;;
36189;SDS011;22232;50.914;13.858;2024-03-08T05:24:31;58.88;;;26.55;;
36189;SDS011;22232;50.914;13.858;2024-03-08T05:26:59;59.60;;;27.10;;
36189;SDS011;22232;50.914;13.858;2024-03-08T05:29:28;58.13;;;27.90;;
36189;SDS011;22232;50.914;13.858;2024-03-08T05:31:56;55.92;;;27.33;;
36189;SDS011;22232;50.914;13.858;2024-03-08T05:34:25;61.10;;;27.58;;
36189;SDS011;22232;50.914;13.858;2024-03-08T05:36:55;60.85;;;28.27;;
36189;SDS011;22232;50.914;13.858;2024-03-08T05:39:25;60.95;;;26.95;;
36189;SDS011;22232;50.914;13.858;2024-03-08T05:41:52;58.33;;;27.13;;
36189;SDS011;22232;50.914;13.858;2024-03-08T05:44:22;54.92;;;26.80;;
36189;SDS011;22232;50.914;13.858;2024-03-08T05:46:50;58.42;;;26.63;;
36189;SDS011;22232;50.914;13.858;2024-03-08T05:49:17;59.50;;;28.15;;
36189;SDS011;22232;50.914;13.858;2024-03-08T05:51:45;56.88;;;26.27;;
36189;SDS011;22232;50.914;13.858;2024-03-08T05:54:14;58.85;;;27.50;;
36189;SDS011;22232;50.914;13.858;2024-03-08T05:56:46;53.67;;;26.15;;
36189;SDS011;22232;50.914;13.858;2024-03-08T05:59:15;53.85;;;25.85;;
36189;SDS011;22232;50.914;13.858;2024-03-08T06:01:42;50.58;;;24.70;;
36189;SDS011;22232;50.914;13.858;2024-03-08T06:04:10;52.00;;;26.17;;
36189;SDS011;22232;50.914;13.858;2024-03-08T06:06:39;54.67;;;24.65;;
36189;SDS011;22232;50.914;13.858;2024-03-08T06:09:07;52.17;;;23.63;;
36189;SDS011;22232;50.914;13.858;2024-03-08T06:11:45;51.95;;;24.27;;
36189;SDS011;22232;50.914;13.858;2024-03-08T06:14:12;50.38;;;24.23;;
36189;SDS011;22232;50.914;13.858;2024-03-08T06:16:40;50.70;;;23.83;;
36189;SDS011;22232;50.914;13.858;2024-03-08T06:19:07;47.13;;;24.35;;
36189;SDS011;22232;50.914;13.858;2024-03-08T06:21:35;49.78;;;24.23;;
36189;SDS011;22232;50.914;13.858;2024-03-08T06:24:03;50.75;;;24.42;;
36189;SDS011;22232;50.914;13.858;2024-03-08T06:26:31;52.22;;;23.90;;
36189;SDS011;22232;50.914;13.858;2024-03-08T06:29:01;50.15;;;24.15;;
36189;SDS011;22232;50.914;13.858;2024-03-08T06:31:28;46.33;;;24.05;;
36189;SDS011;22232;50.914;13.858;2024-03-08T06:33:56;49.47;;;23.30;;
36189;SDS011;22232;50.914;13.858;2024-03-08T06:36:23;50.85;;;24.38;;
36189;SDS011;22232;50.914;13.858;2024-03-08T06:38:52;51.63;;;23.60;;
36189;SDS011;22232;50.914;13.858;2024-03-08T06:41:19;54.00;;;25.25;;
36189;SDS011;22232;50.914;13.858;2024-03-08T06:43:47;49.20;;;24.67;;
36189;SDS011;22232;50.914;13.858;2024-03-08T06:46:16;51.38;;;23.85;;
36189;SDS011;22232;50.914;13.858;2024-03-08T06:48:44;49.75;;;23.80;;
36189;SDS011;22232;50.914;13.858;2024-03-08T06:51:13;44.95;;;23.77;;
36189;SDS011;22232;50.914;13.858;2024-03-08T06:53:41;48.92;;;24.23;;
36189;SDS011;22232;50.914;13.858;2024-03-08T06:56:09;51.65;;;23.98;;
36189;SDS011;22232;50.914;13.858;2024-03-08T06:58:37;48.22;;;23.98;;
36189;SDS011;22232;50.914;13.858;2024-03-08T07:01:04;45.45;;;23.63;;
36189;SDS011;22232;50.914;13.858;2024-03-08T07:03:35;50.35;;;24.35;;
36189;SDS011;22232;50.914;13.858;2024-03-08T07:06:03;47.60;;;23.80;;
36189;SDS011;22232;50.914;13.858;2024-03-08T07:08:34;49.83;;;24.75;;
36189;SDS011;22232;50.914;13.858;2024-03-08T07:11:02;50.25;;;24.70;;
36189;SDS011;22232;50.914;13.858;2024-03-08T07:13:30;51.00;;;24.13;;
36189;SDS011;22232;50.914;13.858;2024-03-08T07:15:58;47.95;;;24.23;;
36189;SDS011;22232;50.914;13.858;2024-03-08T07:18:28;48.15;;;24.45;;
36189;SDS011;22232;50.914;13.858;2024-03-08T07:20:57;49.97;;;25.58;;
36189;SDS011;22232;50.914;13.858;2024-03-08T07:23:25;50.78;;;25.58;;
36189;SDS011;22232;50.914;13.858;2024-03-08T07:26:15;44.33;;;24.85;;
36189;SDS011;22232;50.914;13.858;2024-03-08T07:28:43;50.22;;;25.60;;
36189;SDS011;22232;50.914;13.858;2024-03-08T07:31:11;53.00;;;26.15;;
36189;SDS011;22232;50.914;13.858;2024-03-08T07:33:41;51.92;;;26.00;;
36189;SDS011;22232;50.914;13.858;2024-03-08T07:36:09;52.20;;;26.13;;
36189;SDS011;22232;50.914;13.858;2024-03-08T07:38:36;51.53;;;24.90;;
36189;SDS011;22232;50.914;13.858;2024-03-08T07:41:04;54.42;;;26.38;;
36189;SDS011;22232;50.914;13.858;2024-03-08T07:43:32;58.10;;;26.88;;
36189;SDS011;22232;50.914;13.858;2024-03-08T07:46:02;47.47;;;25.67;;
36189;SDS011;22232;50.914;13.858;2024-03-08T07:48:30;51.70;;;25.05;;
36189;SDS011;22232;50.914;13.858;2024-03-08T07:51:00;56.38;;;25.92;;
36189;SDS011;22232;50.914;13.858;2024-03-08T07:53:27;53.38;;;25.58;;
36189;SDS011;22232;50.914;13.858;2024-03-08T07:55:55;50.45;;;24.10;;
36189;SDS011;22232;50.914;13.858;2024-03-08T07:58:22;48.47;;;25.05;;
36189;SDS011;22232;50.914;13.858;2024-03-08T08:00:50;53.17;;;25.98;;
36189;SDS011;22232;50.914;13.858;2024-03-08T08:03:18;53.78;;;26.10;;
36189;SDS011;22232;50.914;13.858;2024-03-08T08:05:48;50.58;;;25.23;;
36189;SDS011;22232;50.914;13.858;2024-03-08T08:08:16;51.38;;;25.75;;
36189;SDS011;22232;50.914;13.858;2024-03-08T08:10:43;48.78;;;24.45;;
36189;SDS011;22232;50.914;13.858;2024-03-08T08:13:11;50.10;;;25.17;;
36189;SDS011;22232;50.914;13.858;2024-03-08T08:15:39;52.00;;;25.83;;
36189;SDS011;22232;50.914;13.858;2024-03-08T08:18:07;50.58;;;25.10;;
36189;SDS011;22232;50.914;13.858;2024-03-08T08:20:37;51.97;;;25.48;;
36189;SDS011;22232;50.914;13.858;2024-03-08T08:23:04;56.85;;;27.45;;
36189;SDS011;22232;50.914;13.858;2024-03-08T08:25:32;52.38;;;25.73;;
36189;SDS011;22232;50.914;13.858;2024-03-08T08:28:02;56.40;;;27.80;;
36189;SDS011;22232;50.914;13.858;2024-03-08T08:30:31;50.33;;;25.60;;
36189;SDS011;22232;50.914;13.858;2024-03-08T08:33:00;58.75;;;27.27;;
36189;SDS011;22232;50.914;13.858;2024-03-08T08:35:28;56.80;;;26.67;;
36189;SDS011;22232;50.914;13.858;2024-03-08T08:37:56;50.08;;;26.45;;
36189;SDS011;22232;50.914;13.858;2024-03-08T08:40:26;50.70;;;25.65;;
36189;SDS011;22232;50.914;13.858;2024-03-08T08:42:56;49.97;;;25.95;;
36189;SDS011;22232;50.914;13.858;2024-03-08T08:45:26;49.50;;;25.63;;
36189;SDS011;22232;50.914;13.858;2024-03-08T08:47:54;50.22;;;25.80;;
36189;SDS011;22232;50.914;13.858;2024-03-08T08:50:22;52.35;;;26.08;;
36189;SDS011;22232;50.914;13.858;2024-03-08T08:52:51;51.58;;;26.40;;
36189;SDS011;22232;50.914;13.858;2024-03-08T08:55:19;51.63;;;26.23;;
36189;SDS011;22232;50.914;13.858;2024-03-08T08:57:48;49.03;;;25.38;;
36189;SDS011;22232;50.914;13.858;2024-03-08T09:00:18;45.53;;;24.15;;
36189;SDS011;22232;50.914;13.858;2024-03-08T09:02:47;50.65;;;24.38;;
36189;SDS011;22232;50.914;13.858;2024-03-08T09:05:18;49.63;;;24.40;;
36189;SDS011;22232;50.914;13.858;2024-03-08T09:07:45;52.47;;;26.02;;
36189;SDS011;22232;50.914;13.858;2024-03-08T09:10:13;45.33;;;23.63;;
36189;SDS011;22232;50.914;13.858;2024-03-08T09:12:44;43.80;;;22.92;;
36189;SDS011;22232;50.914;13.858;2024-03-08T09:15:12;45.63;;;21.55;;
36189;SDS011;22232;50.914;13.858;2024-03-08T09:17:40;43.45;;;22.13;;
36189;SDS011;22232;50.914;13.858;2024-03-08T09:20:09;42.40;;;21.30;;
36189;SDS011;22232;50.914;13.858;2024-03-08T09:22:38;42.55;;;22.08;;
36189;SDS011;22232;50.914;13.858;2024-03-08T09:25:07;40.05;;;20.60;;
36189;SDS011;22232;50.914;13.858;2024-03-08T09:27:36;38.05;;;19.90;;
36189;SDS011;22232;50.914;13.858;2024-03-08T09:30:06;41.75;;;21.17;;
36189;SDS011;22232;50.914;13.858;2024-03-08T09:32:35;39.20;;;20.70;;
36189;SDS011;22232;50.914;13.858;2024-03-08T09:35:04;40.88;;;21.35;;
36189;SDS011;22232;50.914;13.858;2024-03-08T09:37:35;37.47;;;20.40;;
36189;SDS011;22232;50.914;13.858;2024-03-08T09:40:03;39.90;;;20.42;;
36189;SDS011;22232;50.914;13.858;2024-03-08T09:42:37;38.92;;;20.17;;
36189;SDS011;22232;50.914;13.858;2024-03-08T09:45:08;36.80;;;20.38;;
36189;SDS011;22232;50.914;13.858;2024-03-08T09:47:41;37.77;;;20.20;;
36189;SDS011;22232;50.914;13.858;2024-03-08T09:50:10;37.85;;;20.60;;
36189;SDS011;22232;50.914;13.858;2024-03-08T09:52:40;40.38;;;21.33;;
36189;SDS011;22232;50.914;13.858;2024-03-08T09:55:07;41.33;;;22.02;;
36189;SDS011;22232;50.914;13.858;2024-03-08T09:57:41;44.67;;;21.45;;
36189;SDS011;22232;50.914;13.858;2024-03-08T10:00:30;39.60;;;20.65;;
36189;SDS011;22232;50.914;13.858;2024-03-08T10:03:01;42.17;;;21.70;;
36189;SDS011;22232;50.914;13.858;2024-03-08T10:05:30;40.15;;;20.95;;
36189;SDS011;22232;50.914;13.858;2024-03-08T10:07:59;39.88;;;22.00;;
36189;SDS011;22232;50.914;13.858;2024-03-08T10:10:27;40.42;;;22.25;;
36189;SDS011;22232;50.914;13.858;2024-03-08T10:12:55;43.95;;;21.83;;
36189;SDS011;22232;50.914;13.858;2024-03-08T10:15:23;37.95;;;20.30;;
36189;SDS011;22232;50.914;13.858;2024-03-08T10:17:51;39.25;;;20.92;;
36189;SDS011;22232;50.914;13.858;2024-03-08T10:20:20;38.08;;;20.90;;
36189;SDS011;22232;50.914;13.858;2024-03-08T10:22:48;38.88;;;21.27;;
36189;SDS011;22232;50.914;13.858;2024-03-08T10:25:33;40.47;;;21.58;;
36189;SDS011;22232;50.914;13.858;2024-03-08T10:28:04;42.35;;;21.52;;
36189;SDS011;22232;50.914;13.858;2024-03-08T10:30:33;38.70;;;21.08;;
36189;SDS011;22232;50.914;13.858;2024-03-08T10:33:01;38.00;;;21.05;;
36189;SDS011;22232;50.914;13.858;2024-03-08T10:35:29;44.13;;;22.27;;
36189;SDS011;22232;50.914;13.858;2024-03-08T10:37:58;41.03;;;21.63;;
36189;SDS011;22232;50.914;13.858;2024-03-08T10:40:30;42.58;;;21.67;;
36189;SDS011;22232;50.914;13.858;2024-03-08T10:42:58;42.10;;;22.83;;
36189;SDS011;22232;50.914;13.858;2024-03-08T10:45:36;37.83;;;20.80;;
36189;SDS011;22232;50.914;13.858;2024-03-08T10:51:05;37.95;;;19.92;;
36189;SDS011;22232;50.914;13.858;2024-03-08T10:53:34;38.45;;;20.60;;
36189;SDS011;22232;50.914;13.858;2024-03-08T10:56:04;37.03;;;19.95;;
36189;SDS011;22232;50.914;13.858;2024-03-08T10:58:32;36.92;;;19.27;;
36189;SDS011;22232;50.914;13.858;2024-03-08T11:01:03;36.22;;;20.48;;
36189;SDS011;22232;50.914;13.858;2024-03-08T11:06:07;37.00;;;20.77;;
36189;SDS011;22232;50.914;13.858;2024-03-08T11:08:36;36.05;;;19.42;;
36189;SDS011;22232;50.914;13.858;2024-03-08T11:11:04;39.92;;;20.10;;
36189;SDS011;22232;50.914;13.858;2024-03-08T11:13:32;40.08;;;20.40;;
36189;SDS011;22232;50.914;13.858;2024-03-08T11:16:07;38.83;;;20.55;;
36189;SDS011;22232;50.914;13.858;2024-03-08T11:18:37;36.53;;;19.38;;
36189;SDS011;22232;50.914;13.858;2024-03-08T11:21:06;36.10;;;19.83;;
36189;SDS011;22232;50.914;13.858;2024-03-08T11:23:40;36.85;;;19.65;;
36189;SDS011;22232;50.914;13.858;2024-03-08T11:26:20;39.95;;;20.98;;
36189;SDS011;22232;50.914;13.858;2024-03-08T11:28:50;40.08;;;19.33;;
36189;SDS011;22232;50.914;13.858;2024-03-08T11:31:23;36.72;;;19.20;;
36189;SDS011;22232;50.914;13.858;2024-03-08T11:33:54;34.50;;;19.08;;
36189;SDS011;22232;50.914;13.858;2024-03-08T11:36:22;39.70;;;20.13;;
36189;SDS011;22232;50.914;13.858;2024-03-08T11:38:52;31.20;;;17.55;;
36189;SDS011;22232;50.914;13.858;2024-03-08T11:41:22;35.67;;;18.88;;
36189;SDS011;22232;50.914;13.858;2024-03-08T11:44:01;32.05;;;18.13;;
36189;SDS011;22232;50.914;13.858;2024-03-08T11:46:32;31.27;;;17.55;;
36189;SDS011;22232;50.914;13.858;2024-03-08T11:49:00;34.20;;;18.35;;
36189;SDS011;22232;50.914;13.858;2024-03-08T11:51:29;34.30;;;18.02;;
36189;SDS011;22232;50.914;13.858;2024-03-08T11:53:57;33.00;;;18.10;;
36189;SDS011;22232;50.914;13.858;2024-03-08T11:56:24;33.80;;;17.92;;
36189;SDS011;22232;50.914;13.858;2024-03-08T11:58:53;30.90;;;16.77;;
36189;SDS011;22232;50.914;13.858;2024-03-08T12:01:25;29.55;;;16.48;;
36189;SDS011;22232;50.914;13.858;2024-03-08T12:03:53;30.83;;;16.95;;
36189;SDS011;22232;50.914;13.858;2024-03-08T12:06:22;27.85;;;16.13;;
36189;SDS011;22232;50.914;13.858;2024-03-08T12:08:49;26.67;;;15.43;;
36189;SDS011;22232;50.914;13.858;2024-03-08T12:11:18;31.73;;;16.23;;
36189;SDS011;22232;50.914;13.858;2024-03-08T12:13:51;29.17;;;15.63;;
36189;SDS011;22232;50.914;13.858;2024-03-08T12:16:19;30.10;;;16.38;;
36189;SDS011;22232;50.914;13.858;2024-03-08T12:18:51;26.45;;;15.15;;
36189;SDS011;22232;50.914;13.858;2024-03-08T12:21:19;28.95;;;14.63;;
36189;SDS011;22232;50.914;13.858;2024-03-08T12:24:13;27.70;;;13.88;;
36189;SDS011;22232;50.914;13.858;2024-03-08T12:26:43;30.88;;;16.08;;
36189;SDS011;22232;50.914;13.858;2024-03-08T12:29:18;26.27;;;13.95;;
36189;SDS011;22232;50.914;13.858;2024-03-08T12:31:53;27.77;;;16.23;;
36189;SDS011;22232;50.914;13.858;2024-03-08T12:34:25;29.00;;;14.95;;
36189;SDS011;22232;50.914;13.858;2024-03-08T12:36:55;28.15;;;16.23;;
36189;SDS011;22232;50.914;13.858;2024-03-08T12:39:22;30.63;;;15.15;;
36189;SDS011;22232;50.914;13.858;2024-03-08T12:44:27;32.88;;;16.83;;
36189;SDS011;22232;50.914;13.858;2024-03-08T12:46:56;28.77;;;16.38;;
36189;SDS011;22232;50.914;13.858;2024-03-08T12:49:26;29.48;;;16.05;;
36189;SDS011;22232;50.914;13.858;2024-03-08T12:51:54;30.23;;;16.25;;
36189;SDS011;22232;50.914;13.858;2024-03-08T12:54:22;26.70;;;14.82;;
36189;SDS011;22232;50.914;13.858;2024-03-08T12:56:51;29.10;;;15.88;;
36189;SDS011;22232;50.914;13.858;2024-03-08T12:59:22;28.08;;;16.00;;
36189;SDS011;22232;50.914;13.858;2024-03-08T13:01:51;34.08;;;17.05;;
36189;SDS011;22232;50.914;13.858;2024-03-08T13:04:20;24.85;;;13.57;;
36189;SDS011;22232;50.914;13.858;2024-03-08T13:06:49;25.17;;;14.10;;
36189;SDS011;22232;50.914;13.858;2024-03-08T13:09:21;25.55;;;14.07;;
36189;SDS011;22232;50.914;13.858;2024-03-08T13:11:49;25.58;;;14.02;;
36189;SDS011;22232;50.914;13.858;2024-03-08T13:14:17;26.75;;;13.80;;
36189;SDS011;22232;50.914;13.858;2024-03-08T13:16:44;23.90;;;13.95;;
36189;SDS011;22232;50.914;13.858;2024-03-08T13:19:15;24.50;;;13.80;;
36189;SDS011;22232;50.914;13.858;2024-03-08T13:21:44;26.70;;;14.13;;
36189;SDS011;22232;50.914;13.858;2024-03-08T13:24:16;26.27;;;14.63;;
36189;SDS011;22232;50.914;13.858;2024-03-08T13:26:47;24.83;;;13.27;;
36189;SDS011;22232;50.914;13.858;2024-03-08T13:29:14;20.98;;;12.43;;
36189;SDS011;22232;50.914;13.858;2024-03-08T13:31:42;22.05;;;12.32;;
36189;SDS011;22232;50.914;13.858;2024-03-08T13:34:10;22.67;;;11.27;;
36189;SDS011;22232;50.914;13.858;2024-03-08T13:36:38;18.88;;;11.18;;
36189;SDS011;22232;50.914;13.858;2024-03-08T13:39:11;20.40;;;11.48;;
36189;SDS011;22232;50.914;13.858;2024-03-08T13:41:48;22.20;;;12.05;;
36189;SDS011;22232;50.914;13.858;2024-03-08T13:44:15;23.85;;;12.65;;
36189;SDS011;22232;50.914;13.858;2024-03-08T13:46:46;19.83;;;11.00;;
36189;SDS011;22232;50.914;13.858;2024-03-08T13:49:16;17.40;;;9.95;;
36189;SDS011;22232;50.914;13.858;2024-03-08T13:51:43;17.88;;;9.80;;
36189;SDS011;22232;50.914;13.858;2024-03-08T13:54:12;19.00;;;10.70;;
36189;SDS011;22232;50.914;13.858;2024-03-08T13:56:39;18.10;;;10.80;;
36189;SDS011;22232;50.914;13.858;2024-03-08T13:59:07;18.85;;;10.95;;
36189;SDS011;22232;50.914;13.858;2024-03-08T14:01:36;20.20;;;11.63;;
36189;SDS011;22232;50.914;13.858;2024-03-08T14:04:04;18.08;;;10.70;;
36189;SDS011;22232;50.914;13.858;2024-03-08T14:06:31;20.25;;;10.98;;
36189;SDS011;22232;50.914;13.858;2024-03-08T14:08:59;17.45;;;9.80;;
36189;SDS011;22232;50.914;13.858;2024-03-08T14:11:26;19.80;;;11.15;;
36189;SDS011;22232;50.914;13.858;2024-03-08T14:13:55;23.33;;;10.75;;
36189;SDS011;22232;50.914;13.858;2024-03-08T14:16:22;17.90;;;9.75;;
36189;SDS011;22232;50.914;13.858;2024-03-08T14:18:50;21.70;;;11.65;;
36189;SDS011;22232;50.914;13.858;2024-03-08T14:21:17;19.08;;;10.88;;
36189;SDS011;22232;50.914;13.858;2024-03-08T14:23:45;17.55;;;10.30;;
36189;SDS011;22232;50.914;13.858;2024-03-08T14:26:12;16.27;;;8.85;;